createdAt,value
2018-03-03T00:00:36.215Z,135.95
2018-03-03T00:03:05.585Z,121.68
2018-03-03T00:05:36.599Z,123.08
2018-03-03T00:08:06.085Z,136.93
2018-03-03T00:10:35.596Z,123.87
2018-03-03T00:13:05.580Z,131.12
2018-03-03T00:15:34.788Z,116.28
2018-03-03T00:18:07.112Z,107.18
2018-03-03T00:20:37.233Z,115.22
2018-03-03T00:23:09.124Z,117.05
2018-03-03T00:25:39.256Z,103.87
2018-03-03T00:28:10.923Z,103.77
2018-03-03T00:30:43.385Z,109.00
2018-03-03T00:33:12.899Z,112.68
2018-03-03T00:35:42.696Z,88.22
2018-03-03T00:38:15.607Z,99.60
2018-03-03T00:40:45.610Z,95.63
2018-03-03T00:43:18.744Z,101.38
2018-03-03T00:45:48.455Z,95.10
2018-03-03T00:48:18.109Z,107.93
2018-03-03T00:50:47.255Z,118.80
2018-03-03T00:53:18.544Z,103.87
2018-03-03T00:55:49.305Z,114.80
2018-03-03T00:58:20.244Z,104.78
2018-03-03T01:00:52.900Z,112.95
2018-03-03T01:03:28.461Z,100.11
2018-03-03T01:05:58.084Z,93.72
2018-03-03T01:08:28.420Z,97.88
2018-03-03T01:11:06.320Z,88.12
2018-03-03T01:13:36.652Z,100.03
2018-03-03T01:16:05.863Z,121.57
2018-03-03T01:18:35.503Z,127.15
2018-03-03T01:21:04.872Z,129.38
2018-03-03T01:23:35.583Z,115.43
2018-03-03T01:26:06.579Z,107.82
2018-03-03T01:28:36.949Z,121.25
2018-03-03T01:31:07.219Z,103.38
2018-03-03T01:33:36.816Z,100.00
2018-03-03T01:36:06.058Z,112.94
2018-03-03T01:38:36.440Z,178.23
2018-03-03T01:41:07.681Z,178.40
2018-03-03T01:43:39.248Z,133.27
2018-03-03T01:46:09.269Z,121.80
2018-03-03T01:48:40.884Z,110.63
2018-03-03T01:54:08.484Z,104.18
2018-03-03T01:56:37.417Z,97.83
2018-03-03T01:59:06.230Z,118.23
2018-03-03T02:01:35.291Z,122.50
2018-03-03T02:04:04.104Z,115.37
2018-03-03T02:06:33.010Z,120.63
2018-03-03T02:09:01.870Z,103.37
2018-03-03T02:11:30.647Z,113.43
2018-03-03T02:13:59.727Z,169.43
2018-03-03T02:16:28.931Z,218.53
2018-03-03T02:18:58.085Z,281.60
2018-03-03T02:21:27.161Z,312.50
2018-03-03T02:23:56.403Z,238.43
2018-03-03T02:26:25.669Z,216.45
2018-03-03T02:28:54.748Z,211.48
2018-03-03T02:31:23.902Z,236.93
2018-03-03T02:33:53.520Z,210.23
2018-03-03T02:36:23.995Z,213.25
2018-03-03T02:38:54.171Z,229.77
2018-03-03T02:41:24.900Z,187.35
2018-03-03T02:43:55.389Z,148.87
2018-03-03T02:46:26.889Z,185.30
2018-03-03T02:48:58.457Z,153.46
2018-03-03T02:51:28.835Z,143.65
2018-03-03T02:54:01.242Z,125.37
2018-03-03T02:56:31.648Z,113.37
2018-03-03T02:59:03.405Z,103.90
2018-03-03T03:01:32.596Z,91.37
2018-03-03T03:04:02.603Z,93.70
2018-03-03T03:06:33.413Z,94.84
2018-03-03T03:09:04.832Z,91.15
2018-03-03T03:11:34.350Z,100.28
2018-03-03T03:14:06.181Z,93.70
2018-03-03T03:16:36.842Z,88.35
2018-03-03T03:19:07.763Z,94.22
2018-03-03T03:21:39.133Z,92.76
2018-03-03T03:24:09.732Z,82.47
2018-03-03T03:26:41.065Z,94.10
2018-03-03T03:29:11.688Z,93.57
2018-03-03T03:31:42.646Z,86.82
2018-03-03T03:34:11.743Z,83.85
2018-03-03T03:36:42.567Z,83.15
2018-03-03T03:39:13.769Z,85.20
2018-03-03T03:41:42.955Z,87.10
2018-03-03T03:44:11.745Z,86.80
2018-03-03T03:46:40.823Z,90.62
2018-03-03T03:49:09.675Z,78.33
2018-03-03T03:51:39.060Z,95.93
2018-03-03T03:54:07.975Z,96.30
2018-03-03T03:56:36.915Z,94.47
2018-03-03T03:59:05.980Z,93.70
2018-03-03T04:01:35.087Z,89.00
2018-03-03T04:04:04.123Z,100.43
2018-03-03T04:06:32.996Z,111.80
2018-03-03T04:09:02.504Z,102.27
2018-03-03T04:11:31.351Z,93.20
2018-03-03T04:14:00.141Z,89.33
2018-03-03T04:16:28.936Z,90.73
2018-03-03T04:18:58.904Z,87.12
2018-03-03T04:21:27.960Z,93.13
2018-03-03T04:23:56.719Z,79.23
2018-03-03T04:26:25.564Z,100.90
2018-03-03T04:28:54.292Z,100.93
2018-03-03T04:31:23.448Z,111.57
2018-03-03T04:33:52.558Z,112.90
2018-03-03T04:36:21.300Z,105.60
2018-03-03T04:38:50.243Z,101.00
2018-03-03T04:41:19.116Z,106.43
2018-03-03T04:43:48.209Z,121.35
2018-03-03T04:46:17.016Z,153.17
2018-03-03T04:48:46.005Z,183.53
2018-03-03T04:51:14.962Z,228.93
2018-03-03T04:53:43.637Z,248.60
2018-03-03T04:56:12.374Z,281.63
2018-03-03T04:58:41.035Z,284.93
2018-03-03T05:01:10.388Z,286.83
2018-03-03T05:06:57.443Z,123.57
2018-03-03T05:09:26.552Z,121.23
2018-03-03T05:11:55.207Z,104.90
2018-03-03T05:14:29.554Z,94.53
2018-03-03T05:17:00.508Z,84.73
2018-03-03T05:19:39.408Z,90.78
2018-03-03T05:25:24.673Z,108.65
2018-03-03T05:27:59.121Z,110.37
2018-03-03T05:30:33.297Z,89.13
2018-03-03T05:33:07.436Z,89.67
2018-03-03T05:35:40.023Z,76.40
2018-03-03T05:41:22.098Z,110.15
2018-03-03T05:43:56.797Z,96.97
2018-03-03T05:49:35.806Z,121.60
2018-03-03T05:52:10.207Z,117.13
2018-03-03T05:54:58.767Z,117.37
2018-03-03T05:57:33.476Z,135.82
2018-03-03T06:00:08.944Z,128.10
2018-03-03T06:02:45.727Z,152.28
2018-03-03T06:05:20.048Z,165.57
2018-03-03T06:07:54.588Z,145.98
2018-03-03T06:10:39.335Z,145.83
2018-03-03T06:13:08.459Z,131.80
2018-03-03T06:15:37.624Z,157.98
2018-03-03T06:18:07.519Z,167.57
2018-03-03T06:20:36.745Z,198.73
2018-03-03T06:23:05.846Z,200.07
2018-03-03T06:25:34.987Z,159.50
2018-03-03T06:28:03.864Z,131.83
2018-03-03T06:30:33.147Z,134.12
2018-03-03T06:33:02.301Z,117.32
2018-03-03T06:35:31.641Z,94.37
2018-03-03T06:38:00.753Z,130.45
2018-03-03T06:40:30.701Z,125.47
2018-03-03T06:43:00.024Z,186.00
2018-03-03T06:45:29.120Z,182.98
2018-03-03T06:47:58.204Z,245.07
2018-03-03T06:50:27.406Z,324.30
2018-03-03T06:52:57.431Z,370.63
2018-03-03T06:55:28.009Z,288.60
2018-03-03T06:57:59.179Z,164.77
2018-03-03T07:00:29.675Z,95.00
2018-03-03T07:02:59.869Z,88.05
2018-03-03T07:05:30.374Z,102.42
2018-03-03T07:08:01.653Z,92.96
2018-03-03T07:10:33.554Z,107.92
2018-03-03T07:13:04.775Z,86.73
2018-03-03T07:15:34.129Z,86.25
2018-03-03T07:18:04.037Z,73.90
2018-03-03T07:20:34.980Z,79.35
2018-03-03T07:23:04.056Z,78.37
2018-03-03T07:25:35.907Z,67.02
2018-03-03T07:28:09.356Z,80.98
2018-03-03T07:30:39.102Z,71.35
2018-03-03T07:33:10.304Z,31.58
2018-03-03T07:35:39.488Z,68.62
2018-03-03T07:38:09.763Z,61.40
2018-03-03T07:40:40.280Z,63.08
2018-03-03T07:43:10.960Z,43.08
2018-03-03T07:45:42.294Z,68.93
2018-03-03T07:48:13.751Z,71.20
2018-03-03T07:50:43.988Z,65.72
2018-03-03T07:53:15.945Z,74.66
2018-03-03T07:55:46.197Z,58.17
2018-03-03T07:58:28.530Z,57.40
2018-03-03T08:00:57.650Z,72.80
2018-03-03T08:03:26.591Z,71.64
2018-03-03T08:05:55.558Z,74.43
2018-03-03T08:08:24.623Z,68.45
2018-03-03T08:10:55.125Z,74.40
2018-03-03T08:13:26.461Z,80.26
2018-03-03T08:15:56.264Z,63.28
2018-03-03T08:18:26.694Z,73.10
2018-03-03T08:20:57.336Z,81.37
2018-03-03T08:23:28.612Z,73.00
2018-03-03T08:25:59.046Z,74.35
2018-03-03T08:28:29.647Z,72.03
2018-03-03T08:31:01.202Z,91.88
2018-03-03T08:33:31.556Z,88.16
2018-03-03T08:36:02.361Z,73.55
2018-03-03T08:38:33.994Z,74.96
2018-03-03T08:41:05.672Z,72.22
2018-03-03T08:43:35.333Z,58.83
2018-03-03T08:46:05.616Z,59.55
2018-03-03T08:48:35.928Z,64.68
2018-03-03T08:51:06.435Z,60.40
2018-03-03T08:53:36.962Z,53.20
2018-03-03T08:56:07.807Z,64.50
2018-03-03T08:58:39.073Z,52.86
2018-03-03T09:01:09.554Z,62.18
2018-03-03T09:03:42.404Z,60.50
2018-03-03T09:06:13.990Z,52.32
2018-03-03T09:08:44.506Z,59.28
2018-03-03T09:11:13.583Z,53.75
2018-03-03T09:13:42.960Z,61.63
2018-03-03T09:16:13.450Z,52.38
2018-03-03T09:18:43.983Z,55.10
2018-03-03T09:21:13.679Z,44.30
2018-03-03T09:23:44.732Z,40.88
2018-03-03T09:26:17.067Z,41.68
2018-03-03T09:28:49.388Z,39.32
2018-03-03T09:31:22.300Z,45.83
2018-03-03T09:33:52.972Z,43.32
2018-03-03T09:36:22.112Z,39.65
2018-03-03T09:38:52.351Z,41.87
2018-03-03T09:41:23.813Z,38.40
2018-03-03T09:43:54.802Z,48.92
2018-03-03T09:46:25.663Z,44.30
2018-03-03T09:48:56.975Z,50.22
2018-03-03T09:51:27.539Z,49.33
2018-03-03T09:53:58.992Z,44.78
2018-03-03T09:56:29.495Z,45.58
2018-03-03T09:59:00.250Z,43.58
2018-03-03T10:01:30.579Z,40.62
2018-03-03T10:04:01.399Z,52.22
2018-03-03T10:06:32.156Z,74.78
2018-03-03T10:09:02.944Z,46.22
2018-03-03T10:11:33.650Z,39.50
2018-03-03T10:14:04.266Z,43.40
2018-03-03T10:16:34.862Z,94.32
2018-03-03T10:19:05.485Z,48.00
2018-03-03T10:21:35.796Z,36.95
2018-03-03T10:24:07.440Z,47.67
2018-03-03T10:26:37.943Z,50.47
2018-03-03T10:29:08.859Z,45.00
2018-03-03T10:31:40.051Z,46.12
2018-03-03T10:34:11.076Z,47.58
2018-03-03T10:36:41.743Z,52.33
2018-03-03T10:39:12.624Z,36.22
2018-03-03T10:41:43.888Z,42.08
2018-03-03T10:44:14.792Z,42.55
2018-03-03T10:46:45.712Z,41.70
2018-03-03T10:49:16.592Z,56.00
2018-03-03T10:51:47.845Z,61.68
2018-03-03T10:54:18.755Z,50.67
2018-03-03T10:56:49.269Z,52.08
2018-03-03T10:59:19.919Z,44.72
2018-03-03T11:01:51.617Z,44.75
2018-03-03T11:04:22.146Z,42.22
2018-03-03T11:06:52.782Z,37.83
2018-03-03T11:09:23.709Z,41.28
2018-03-03T11:11:54.597Z,38.10
2018-03-03T11:14:24.923Z,41.60
2018-03-03T11:16:55.556Z,40.53
2018-03-03T11:19:26.226Z,38.28
2018-03-03T11:21:57.145Z,47.53
2018-03-03T11:24:26.391Z,57.03
2018-03-03T11:26:56.531Z,49.97
2018-03-03T11:29:27.561Z,37.00
2018-03-03T11:31:58.354Z,52.13
2018-03-03T11:34:29.790Z,38.50
2018-03-03T11:36:58.860Z,57.97
2018-03-03T11:39:27.946Z,70.62
2018-03-03T11:41:57.091Z,71.78
2018-03-03T11:44:26.216Z,36.53
2018-03-03T11:46:55.020Z,39.73
2018-03-03T11:49:23.921Z,33.50
2018-03-03T11:51:52.723Z,40.60
2018-03-03T11:54:21.853Z,37.67
2018-03-03T11:56:50.974Z,36.53
2018-03-03T11:59:19.782Z,33.23
2018-03-03T12:01:48.807Z,35.37
2018-03-03T12:04:17.695Z,39.23
2018-03-03T12:06:46.506Z,38.60
2018-03-03T12:09:15.586Z,37.70
2018-03-03T12:11:44.457Z,36.53
2018-03-03T12:14:13.252Z,36.87
2018-03-03T12:16:42.035Z,33.43
2018-03-03T12:19:11.233Z,42.80
2018-03-03T12:21:40.305Z,38.55
2018-03-03T12:24:09.092Z,36.40
2018-03-03T12:26:37.977Z,30.37
2018-03-03T12:29:06.753Z,31.27
2018-03-03T12:31:35.864Z,35.83
2018-03-03T12:34:04.766Z,31.47
2018-03-03T12:36:33.557Z,33.97
2018-03-03T12:39:02.649Z,32.03
2018-03-03T12:41:31.752Z,29.13
2018-03-03T12:44:00.794Z,29.60
2018-03-03T12:46:29.738Z,32.40
2018-03-03T12:48:58.811Z,24.57
2018-03-03T12:51:27.737Z,39.67
2018-03-03T12:53:56.873Z,27.63
2018-03-03T12:56:25.907Z,30.13
2018-03-03T12:58:54.688Z,32.73
2018-03-03T13:01:23.827Z,31.37
2018-03-03T13:03:52.724Z,30.67
2018-03-03T13:06:21.697Z,32.57
2018-03-03T13:08:50.683Z,26.43
2018-03-03T13:11:19.892Z,37.38
2018-03-03T13:13:48.968Z,29.37
2018-03-03T13:16:17.749Z,34.10
2018-03-03T13:18:46.795Z,30.57
2018-03-03T13:21:15.578Z,28.30
2018-03-03T13:23:44.719Z,33.20
2018-03-03T13:26:13.601Z,28.53
2018-03-03T13:28:42.751Z,26.20
2018-03-03T13:31:11.796Z,27.90
2018-03-03T13:33:40.643Z,33.10
2018-03-03T13:36:09.545Z,32.43
2018-03-03T13:38:38.328Z,50.47
2018-03-03T13:41:07.463Z,36.35
2018-03-03T13:43:36.480Z,30.50
2018-03-03T13:46:05.284Z,26.98
2018-03-03T13:48:34.235Z,30.83
2018-03-03T13:51:03.012Z,24.67
2018-03-03T13:53:31.827Z,29.27
2018-03-03T13:56:00.673Z,28.87
2018-03-03T13:58:29.778Z,22.95
2018-03-03T14:00:58.804Z,26.37
2018-03-03T14:03:27.713Z,25.93
2018-03-03T14:05:56.688Z,24.90
2018-03-03T14:08:25.584Z,27.10
2018-03-03T14:10:54.600Z,37.93
2018-03-03T14:13:23.496Z,30.83
2018-03-03T14:15:52.348Z,28.33
2018-03-03T14:18:21.555Z,32.13
2018-03-03T14:20:50.642Z,31.05
2018-03-03T14:23:19.532Z,29.10
2018-03-03T14:25:48.683Z,38.63
2018-03-03T14:28:33.242Z,28.55
2018-03-03T14:31:02.535Z,32.80
2018-03-03T14:33:31.526Z,41.03
2018-03-03T14:36:00.689Z,28.12
2018-03-03T14:38:29.543Z,26.20
2018-03-03T14:40:58.631Z,28.65
2018-03-03T14:43:27.567Z,36.33
2018-03-03T14:45:56.701Z,35.70
2018-03-03T14:48:25.805Z,30.07
2018-03-03T14:50:54.888Z,28.12
2018-03-03T14:53:24.044Z,32.30
2018-03-03T14:55:53.136Z,29.50
2018-03-03T14:58:22.220Z,36.62
2018-03-03T15:00:51.616Z,33.77
2018-03-03T15:03:20.554Z,32.08
2018-03-03T15:05:50.149Z,36.58
2018-03-03T15:08:20.959Z,34.15
2018-03-03T15:10:50.451Z,32.97
2018-03-03T15:13:21.892Z,31.50
2018-03-03T15:15:52.580Z,30.98
2018-03-03T15:18:24.072Z,35.30
2018-03-03T15:20:54.422Z,38.15
2018-03-03T15:23:25.679Z,39.54
2018-03-03T15:25:58.452Z,38.60
2018-03-03T15:28:28.280Z,70.95
2018-03-03T15:31:01.065Z,67.83
2018-03-03T15:33:30.888Z,50.65
2018-03-03T15:36:01.256Z,49.17
2018-03-03T15:38:31.561Z,74.70
2018-03-03T15:41:01.956Z,119.22
2018-03-03T15:43:36.823Z,48.50
2018-03-03T15:46:06.144Z,50.23
2018-03-03T15:48:35.770Z,44.30
2018-03-03T15:51:06.340Z,60.54
2018-03-03T15:53:36.838Z,80.97
2018-03-03T15:56:08.375Z,45.90
2018-03-03T15:58:38.888Z,47.24
2018-03-03T16:01:09.902Z,54.90
2018-03-03T16:03:40.716Z,50.75
2018-03-03T16:06:11.667Z,51.42
2018-03-03T16:08:42.628Z,49.60
2018-03-03T16:11:13.209Z,43.60
2018-03-03T16:13:43.987Z,58.22
2018-03-03T16:16:14.888Z,65.47
2018-03-03T16:18:45.691Z,58.13
2018-03-03T16:21:16.344Z,69.35
2018-03-03T16:23:47.835Z,69.68
2018-03-03T16:26:21.201Z,72.97
2018-03-03T16:28:50.613Z,114.22
2018-03-03T16:31:21.034Z,146.85
2018-03-03T16:33:51.973Z,168.93
2018-03-03T16:36:24.677Z,176.98
2018-03-03T16:38:55.814Z,170.80
2018-03-03T16:41:25.696Z,159.22
2018-03-03T16:43:55.205Z,107.12
2018-03-03T16:46:25.890Z,98.80
2018-03-03T16:48:55.714Z,101.00
2018-03-03T16:51:26.430Z,149.80
2018-03-03T16:53:57.074Z,92.47
2018-03-03T16:56:27.515Z,89.70
2018-03-03T16:58:58.128Z,69.78
2018-03-03T17:01:29.693Z,196.98
2018-03-03T17:04:00.216Z,240.32
2018-03-03T17:06:31.224Z,222.07
2018-03-03T17:09:02.143Z,235.30
2018-03-03T17:11:33.552Z,280.16
2018-03-03T17:14:04.209Z,141.20
2018-03-03T17:16:35.121Z,135.70
2018-03-03T17:19:06.487Z,164.96
2018-03-03T17:21:37.128Z,150.27
2018-03-03T17:24:08.405Z,137.50
2018-03-03T17:26:39.180Z,117.78
2018-03-03T17:29:10.475Z,126.40
2018-03-03T17:31:42.109Z,137.46
2018-03-03T17:34:12.822Z,128.02
2018-03-03T17:36:43.758Z,98.35
2018-03-03T17:39:14.251Z,130.52
2018-03-03T17:41:44.929Z,172.32
2018-03-03T17:44:15.784Z,203.52
2018-03-03T17:46:46.719Z,303.77
2018-03-03T17:49:17.651Z,277.35
2018-03-03T17:51:48.621Z,234.65
2018-03-03T17:54:19.909Z,198.70
2018-03-03T17:56:50.815Z,208.32
2018-03-03T17:59:21.744Z,199.98
2018-03-03T18:01:52.735Z,183.68
2018-03-03T18:04:23.671Z,172.07
2018-03-03T18:06:54.916Z,155.20
2018-03-03T18:09:25.832Z,155.63
2018-03-03T18:12:00.693Z,178.57
2018-03-03T18:14:30.020Z,193.10
2018-03-03T18:16:59.562Z,202.48
2018-03-03T18:19:46.134Z,252.48
2018-03-03T18:22:16.636Z,327.70
2018-03-03T18:24:46.098Z,289.55
2018-03-03T18:27:16.208Z,209.60
2018-03-03T18:29:45.391Z,165.95
2018-03-03T18:32:14.532Z,210.55
2018-03-03T18:34:43.710Z,223.05
2018-03-03T18:37:13.026Z,227.87
2018-03-03T18:39:42.272Z,179.43
2018-03-03T18:42:11.397Z,165.50
2018-03-03T18:44:40.688Z,145.92
2018-03-03T18:47:10.394Z,148.62
2018-03-03T18:49:40.922Z,135.52
2018-03-03T18:52:11.898Z,129.18
2018-03-03T18:54:42.841Z,113.22
2018-03-03T18:57:13.645Z,102.75
2018-03-03T18:59:45.312Z,83.70
2018-03-03T19:02:15.869Z,126.97
2018-03-03T19:04:46.882Z,130.90
2018-03-03T19:07:17.368Z,133.34
2018-03-03T19:09:47.931Z,138.68
2018-03-03T19:12:18.791Z,135.60
2018-03-03T19:14:49.851Z,146.62
2018-03-03T19:17:21.004Z,156.77
2018-03-03T19:19:52.033Z,135.75
2018-03-03T19:22:22.911Z,141.82
2018-03-03T19:24:53.868Z,145.82
2018-03-03T19:27:24.709Z,155.40
2018-03-03T19:29:55.708Z,137.18
2018-03-03T19:32:27.046Z,142.57
2018-03-03T19:34:58.022Z,149.40
2018-03-03T19:37:28.833Z,170.87
2018-03-03T19:39:59.721Z,163.02
2018-03-03T19:42:30.610Z,184.55
2018-03-03T19:45:01.982Z,182.94
2018-03-03T19:47:32.858Z,182.30
2018-03-03T19:50:03.817Z,203.37
2018-03-03T19:52:34.373Z,278.74
2018-03-03T19:55:04.929Z,283.23
2018-03-03T19:57:35.724Z,273.95
2018-03-03T20:00:06.716Z,245.52
2018-03-03T20:02:37.630Z,201.05
2018-03-03T20:05:16.316Z,216.38
2018-03-03T20:10:49.783Z,218.63
2018-03-03T20:13:19.253Z,264.80
2018-03-03T20:15:48.273Z,286.40
2018-03-03T20:18:19.565Z,277.87
2018-03-03T20:20:48.702Z,275.60
2018-03-03T20:23:17.710Z,245.30
2018-03-03T20:25:46.742Z,236.07
2018-03-03T20:28:15.757Z,257.73
2018-03-03T20:30:44.785Z,265.43
2018-03-03T20:33:13.971Z,270.77
2018-03-03T20:35:42.780Z,255.53
2018-03-03T20:38:11.694Z,242.43
2018-03-03T20:40:40.708Z,223.67
2018-03-03T20:43:09.832Z,202.77
2018-03-03T20:45:39.056Z,207.93
2018-03-03T20:48:08.366Z,215.85
2018-03-03T20:50:37.479Z,197.43
2018-03-03T20:53:06.606Z,209.80
2018-03-03T20:55:35.777Z,216.63
2018-03-03T20:58:05.020Z,197.20
2018-03-03T21:00:34.115Z,154.68
2018-03-03T21:03:03.370Z,219.82
2018-03-03T21:05:32.487Z,252.13
2018-03-03T21:08:02.928Z,236.75
2018-03-03T21:10:33.762Z,195.60
2018-03-03T21:13:04.496Z,186.15
2018-03-03T21:15:35.908Z,215.76
2018-03-03T21:18:06.833Z,186.40
2018-03-03T21:20:37.778Z,178.93
2018-03-03T21:23:08.656Z,191.73
2018-03-03T21:25:39.598Z,189.20
2018-03-03T21:28:11.753Z,217.70
2018-03-03T21:30:42.341Z,238.76
2018-03-03T21:33:12.925Z,231.23
2018-03-03T21:35:43.867Z,233.18
2018-03-03T21:38:14.749Z,240.62
2018-03-03T21:40:45.910Z,210.85
2018-03-03T21:43:16.748Z,203.15
2018-03-03T21:45:47.769Z,224.25
2018-03-03T21:48:18.623Z,226.88
2018-03-03T21:50:49.916Z,222.74
2018-03-03T21:53:21.232Z,220.08
2018-03-03T21:55:52.645Z,226.12
2018-03-03T21:58:23.388Z,226.95
2018-03-03T22:04:21.996Z,227.60
2018-03-03T22:06:51.192Z,218.17
2018-03-03T22:09:20.383Z,220.90
2018-03-03T22:11:49.950Z,234.87
2018-03-03T22:14:19.226Z,214.85
2018-03-03T22:16:48.851Z,242.48
2018-03-03T22:19:18.068Z,251.03
2018-03-03T22:21:46.904Z,286.57
2018-03-03T22:24:15.954Z,325.67
2018-03-03T22:26:44.888Z,262.90
2018-03-03T22:29:14.448Z,270.53
2018-03-03T22:31:44.754Z,261.75
2018-03-03T22:34:15.216Z,272.02
2018-03-03T22:36:44.296Z,281.50
2018-03-03T22:39:13.335Z,277.20
2018-03-03T22:41:42.463Z,318.10
2018-03-03T22:44:11.672Z,319.50
2018-03-03T22:46:41.105Z,309.57
2018-03-03T22:49:10.567Z,435.47
2018-03-03T22:51:39.880Z,491.63
2018-03-03T22:54:08.875Z,363.83
2018-03-03T22:56:38.009Z,310.03
2018-03-03T22:59:07.449Z,333.70
2018-03-03T23:01:36.624Z,322.90
2018-03-03T23:04:05.537Z,347.47
2018-03-03T23:06:36.039Z,332.10
2018-03-03T23:09:04.484Z,321.40
2018-03-03T23:11:33.795Z,328.42
2018-03-03T23:14:03.120Z,340.00
2018-03-03T23:16:32.339Z,358.55
2018-03-03T23:19:01.531Z,452.85
2018-03-03T23:21:30.679Z,454.20
2018-03-03T23:23:59.992Z,466.00
2018-03-03T23:26:29.713Z,403.73
2018-03-03T23:28:58.870Z,379.67
2018-03-03T23:31:29.154Z,382.35
2018-03-03T23:33:58.455Z,364.48
2018-03-03T23:36:30.000Z,314.40
2018-03-03T23:38:59.676Z,323.35
2018-03-03T23:41:31.273Z,294.52
2018-03-03T23:44:02.426Z,285.90
2018-03-03T23:46:32.661Z,277.36
2018-03-03T23:49:03.966Z,321.27
2018-03-03T23:51:34.555Z,316.76
2018-03-03T23:54:05.240Z,289.80
2018-03-03T23:56:37.763Z,223.90
2018-03-03T23:59:07.327Z,267.02
